Time;durP1;ratioP1;P1;durP2;ratioP2;P2;SDS_P1;SDS_P2;PMS_P1;PMS_P2;Temp;Humidity;BMP_temperature;BMP_pressure;BME280_temperature;BME280_humidity;BME280_pressure;Samples;Min_cycle;Max_cycle;Signal;HPM_P1;HPM_P2
2022/07/29 00:01:25;;;;;;;4.53;3.20;;;19.90;98.00;;;;;;5031913;28;20541;-71
2022/07/29 00:03:52;;;;;;;3.40;2.57;;;20.00;98.00;;;;;;5031954;28;20458;-71
2022/07/29 00:06:21;;;;;;;3.60;2.83;;;20.00;98.00;;;;;;5031994;28;20524;-71
2022/07/29 00:08:49;;;;;;;4.20;2.67;;;19.90;98.00;;;;;;5031957;28;20466;-71
2022/07/29 00:11:16;;;;;;;3.00;2.47;;;19.80;98.00;;;;;;5030678;28;20447;-71
2022/07/29 00:13:44;;;;;;;4.20;2.80;;;19.70;98.00;;;;;;5030840;28;20910;-71
2022/07/29 00:16:11;;;;;;;3.83;2.60;;;19.70;98.00;;;;;;5031989;28;20459;-71
2022/07/29 00:18:39;;;;;;;5.00;3.17;;;19.70;98.00;;;;;;5031558;28;20498;-71
2022/07/29 00:21:06;;;;;;;8.10;3.07;;;19.70;98.00;;;;;;5031757;28;20891;-71
2022/07/29 00:23:35;;;;;;;5.90;3.50;;;19.60;98.00;;;;;;5030469;28;20450;-71
2022/07/29 00:26:02;;;;;;;5.20;2.63;;;19.50;98.00;;;;;;5031637;28;20512;-71
2022/07/29 00:28:29;;;;;;;4.97;2.93;;;19.50;98.00;;;;;;5030824;28;20465;-71
2022/07/29 00:30:59;;;;;;;5.17;3.10;;;19.60;98.00;;;;;;5031438;28;20458;-71
2022/07/29 00:33:26;;;;;;;4.13;2.83;;;19.70;98.00;;;;;;5031447;28;20949;-71
2022/07/29 00:35:52;;;;;;;4.87;2.80;;;19.70;98.00;;;;;;5031437;28;20469;-71
2022/07/29 00:38:20;;;;;;;4.47;2.93;;;19.70;98.00;;;;;;5031527;28;20477;-71
2022/07/29 00:40:49;;;;;;;5.83;3.33;;;19.70;98.00;;;;;;5031330;28;20487;-71
2022/07/29 00:43:17;;;;;;;3.73;2.73;;;19.70;98.00;;;;;;5031373;28;20463;-71
2022/07/29 00:45:45;;;;;;;4.43;3.00;;;19.80;98.00;;;;;;5031178;28;20458;-71
2022/07/29 00:48:13;;;;;;;2.63;2.37;;;19.80;98.00;;;;;;5031328;28;20831;-71
2022/07/29 00:50:40;;;;;;;3.13;2.30;;;20.00;98.00;;;;;;5029951;28;20957;-71
2022/07/29 00:53:09;;;;;;;3.67;2.80;;;20.00;98.00;;;;;;5031483;28;20462;-71
2022/07/29 00:55:37;;;;;;;5.10;2.70;;;19.90;98.00;;;;;;5031022;28;20451;-71
2022/07/29 00:58:06;;;;;;;3.70;2.70;;;19.90;98.00;;;;;;5031118;28;20537;-71
2022/07/29 01:00:33;;;;;;;4.13;3.00;;;19.90;98.00;;;;;;5030960;28;20479;-71
2022/07/29 01:03:00;;;;;;;4.20;2.80;;;20.10;98.00;;;;;;5031123;28;20455;-71
2022/07/29 01:05:28;;;;;;;4.30;2.57;;;20.20;98.00;;;;;;5029858;28;20451;-71
2022/07/29 01:07:57;;;;;;;2.93;2.60;;;20.20;98.00;;;;;;5031182;28;20827;-71
2022/07/29 01:10:26;;;;;;;3.47;2.50;;;20.30;98.00;;;;;;5031129;28;20462;-71
2022/07/29 01:12:55;;;;;;;5.10;3.10;;;20.30;98.00;;;;;;5031131;28;20466;-71
2022/07/29 01:15:24;;;;;;;4.67;2.63;;;20.30;98.00;;;;;;5031111;28;20457;-71
2022/07/29 01:17:58;;;;;;;4.10;2.87;;;20.00;98.00;;;;;;5031185;28;20473;-71
2022/07/29 01:20:31;;;;;;;4.40;3.17;;;19.80;98.00;;;;;;5030653;28;20482;-71
2022/07/29 01:23:37;;;;;;;4.97;3.10;;;19.90;98.00;;;;;;5030129;28;20462;-71
2022/07/29 01:26:29;;;;;;;4.57;2.63;;;19.80;98.00;;;;;;5030890;28;20516;-71
2022/07/29 01:29:07;;;;;;;4.83;3.00;;;19.80;98.00;;;;;;5030125;28;20495;-71
2022/07/29 01:31:44;;;;;;;4.07;2.57;;;19.90;98.00;;;;;;5030732;28;20466;-71
2022/07/29 01:34:17;;;;;;;2.63;2.43;;;19.90;98.00;;;;;;5031187;28;20545;-71
2022/07/29 01:36:48;;;;;;;3.77;2.53;;;19.80;98.00;;;;;;5030797;28;20470;-71
2022/07/29 01:39:29;;;;;;;4.50;3.07;;;19.70;98.00;;;;;;5031641;28;20481;-71
2022/07/29 01:42:00;;;;;;;3.73;2.57;;;19.70;98.00;;;;;;5034624;28;20968;-71
2022/07/29 01:44:35;;;;;;;3.37;2.60;;;19.50;98.00;;;;;;5034655;28;20459;-71
2022/07/29 01:47:11;;;;;;;5.40;3.00;;;19.40;98.00;;;;;;5034324;28;20966;-71
2022/07/29 01:49:48;;;;;;;4.30;2.87;;;19.40;98.00;;;;;;5033216;28;20458;-71
2022/07/29 01:52:21;;;;;;;4.50;2.83;;;19.40;98.00;;;;;;5034545;28;20457;-71
2022/07/29 01:54:53;;;;;;;5.00;3.40;;;19.30;98.00;;;;;;5034723;28;20952;-71
2022/07/29 01:57:27;;;;;;;3.20;2.27;;;19.20;98.00;;;;;;5033312;28;20455;-71
2022/07/29 01:59:57;;;;;;;4.93;2.87;;;19.20;98.00;;;;;;5034204;28;20490;-71
2022/07/29 02:02:25;;;;;;;4.33;2.93;;;19.30;98.00;;;;;;5034298;28;20457;-71
2022/07/29 02:04:54;;;;;;;5.80;3.43;;;19.20;98.00;;;;;;5034175;28;20481;-71
2022/07/29 02:07:24;;;;;;;4.13;2.90;;;19.00;98.00;;;;;;5034134;28;20462;-71
2022/07/29 02:09:52;;;;;;;3.67;2.50;;;19.00;98.00;;;;;;5034141;28;20485;-71
2022/07/29 02:12:21;;;;;;;3.47;2.70;;;19.10;98.00;;;;;;5034099;28;20458;-71
2022/07/29 02:14:53;;;;;;;3.57;2.77;;;19.20;98.00;;;;;;5033972;28;20458;-71
2022/07/29 02:17:28;;;;;;;3.83;2.37;;;19.20;98.00;;;;;;5034460;28;20463;-71
2022/07/29 02:20:00;;;;;;;4.20;2.67;;;19.10;98.00;;;;;;5033226;28;20485;-71
2022/07/29 02:22:29;;;;;;;3.57;2.43;;;19.00;98.00;;;;;;5032992;28;20466;-71
2022/07/29 02:24:58;;;;;;;3.30;2.47;;;19.00;98.00;;;;;;5033877;28;20462;-71
2022/07/29 02:27:28;;;;;;;3.73;2.30;;;19.00;98.00;;;;;;5032612;28;20462;-71
2022/07/29 02:29:56;;;;;;;3.50;2.73;;;19.20;98.00;;;;;;5033682;28;20521;-71
2022/07/29 02:32:27;;;;;;;3.40;2.60;;;19.10;98.00;;;;;;5033699;28;20451;-71
2022/07/29 02:34:55;;;;;;;3.83;2.50;;;19.00;98.00;;;;;;5033731;28;20458;-71
2022/07/29 02:37:23;;;;;;;3.90;2.60;;;18.80;98.00;;;;;;5033474;28;20462;-71
2022/07/29 02:39:53;;;;;;;4.70;2.77;;;18.70;98.00;;;;;;5032258;28;20450;-71
2022/07/29 02:42:23;;;;;;;3.23;2.60;;;18.70;98.00;;;;;;5033735;28;20465;-71
2022/07/29 02:44:51;;;;;;;3.60;2.50;;;18.70;98.00;;;;;;5033297;28;20954;-71
2022/07/29 02:47:23;;;;;;;3.67;2.53;;;18.60;98.00;;;;;;5033597;28;20824;-71
2022/07/29 02:49:56;;;;;;;4.43;2.57;;;18.70;98.00;;;;;;5033411;28;20466;-71
2022/07/29 02:52:28;;;;;;;4.27;2.53;;;18.60;98.00;;;;;;5032666;28;20490;-71
2022/07/29 02:54:59;;;;;;;2.57;2.20;;;18.60;98.00;;;;;;5033268;28;20455;-71
2022/07/29 02:57:33;;;;;;;2.73;2.27;;;18.50;98.00;;;;;;5033340;28;20455;-71
2022/07/29 03:00:05;;;;;;;4.73;2.37;;;18.50;98.00;;;;;;5033046;28;20550;-71
2022/07/29 03:02:37;;;;;;;2.83;2.20;;;18.50;98.00;;;;;;5033316;28;20455;-71
2022/07/29 03:05:09;;;;;;;3.57;2.00;;;18.50;98.00;;;;;;5033198;28;20462;-71
2022/07/29 03:07:38;;;;;;;4.37;2.60;;;18.60;98.00;;;;;;5032984;28;20469;-71
2022/07/29 03:10:07;;;;;;;3.70;2.50;;;18.60;98.00;;;;;;5033138;28;20455;-71
2022/07/29 03:12:34;;;;;;;3.73;2.50;;;18.50;98.00;;;;;;5031850;28;20466;-71
2022/07/29 03:15:02;;;;;;;3.30;2.30;;;18.40;98.00;;;;;;5033064;28;20953;-71
2022/07/29 03:17:31;;;;;;;5.50;2.50;;;18.40;98.00;;;;;;5032871;28;20520;-71
2022/07/29 03:20:00;;;;;;;3.87;2.50;;;18.40;98.00;;;;;;5031819;28;20455;-71
2022/07/29 03:22:30;;;;;;;2.90;2.00;;;18.50;98.00;;;;;;5033079;28;20505;-71
2022/07/29 03:25:09;;;;;;;4.17;2.20;;;18.50;98.00;;;;;;5032882;28;20458;-71
2022/07/29 03:27:36;;;;;;;6.90;4.27;;;18.40;98.00;;;;;;5032924;28;20461;-71
2022/07/29 03:30:04;;;;;;;4.00;2.77;;;18.50;98.00;;;;;;5032742;28;20454;-71
2022/07/29 03:32:31;;;;;;;3.70;2.43;;;18.40;98.00;;;;;;5032649;28;20459;-71
2022/07/29 03:34:59;;;;;;;3.07;2.30;;;18.40;98.00;;;;;;5032507;28;20960;-71
2022/07/29 03:37:28;;;;;;;2.33;1.80;;;18.40;98.00;;;;;;5032617;28;20450;-71
2022/07/29 03:39:58;;;;;;;2.80;1.90;;;18.20;98.00;;;;;;5031079;28;20454;-71
2022/07/29 03:42:28;;;;;;;2.90;2.20;;;18.20;98.00;;;;;;5032351;28;20509;-71
2022/07/29 03:44:58;;;;;;;5.60;2.33;;;18.10;98.00;;;;;;5032296;28;20502;-71
2022/07/29 03:47:28;;;;;;;3.70;2.27;;;18.10;98.00;;;;;;5032180;28;20863;-71
2022/07/29 03:50:01;;;;;;;2.30;1.90;;;18.10;98.00;;;;;;5032252;28;20542;-71
2022/07/29 03:52:30;;;;;;;3.03;2.37;;;18.20;98.00;;;;;;5032269;28;20469;-71
2022/07/29 03:54:57;;;;;;;2.37;2.07;;;18.50;98.00;;;;;;5032177;28;20955;-71
2022/07/29 03:57:28;;;;;;;3.73;2.83;;;18.50;98.00;;;;;;5032113;28;20466;-71
2022/07/29 03:59:56;;;;;;;4.77;2.80;;;18.60;98.00;;;;;;5032184;28;20550;-71
2022/07/29 04:02:24;;;;;;;5.03;2.50;;;18.50;98.00;;;;;;5031488;28;20853;-71
2022/07/29 04:04:52;;;;;;;3.73;2.33;;;18.40;98.00;;;;;;5031511;28;20465;-71
2022/07/29 04:07:19;;;;;;;3.30;2.23;;;18.50;98.00;;;;;;5031837;28;20459;-71
2022/07/29 04:09:47;;;;;;;3.97;2.43;;;18.30;98.00;;;;;;5031824;28;20795;-71
2022/07/29 04:12:15;;;;;;;3.60;2.73;;;18.10;98.00;;;;;;5031835;28;20450;-71
2022/07/29 04:14:42;;;;;;;3.23;2.37;;;18.10;98.00;;;;;;5031802;28;20826;-71
2022/07/29 04:17:09;;;;;;;4.13;2.70;;;18.00;98.00;;;;;;5031943;28;20953;-71
2022/07/29 04:19:36;;;;;;;3.37;2.33;;;17.90;98.00;;;;;;5030529;28;20520;-71
2022/07/29 04:22:03;;;;;;;4.40;2.80;;;18.00;98.00;;;;;;5031762;28;20482;-71
2022/07/29 04:24:30;;;;;;;2.73;2.03;;;18.00;98.00;;;;;;5032027;28;20658;-71
2022/07/29 04:26:59;;;;;;;2.93;2.33;;;18.10;98.00;;;;;;5031690;28;20475;-71
2022/07/29 04:29:26;;;;;;;2.60;1.83;;;18.20;98.00;;;;;;5031721;28;20469;-71
2022/07/29 04:31:53;;;;;;;4.33;2.50;;;18.40;98.00;;;;;;5031542;28;20482;-71
2022/07/29 04:34:20;;;;;;;4.43;2.60;;;18.40;98.00;;;;;;5031485;28;20473;-71
2022/07/29 04:36:47;;;;;;;4.03;2.53;;;18.30;98.00;;;;;;5031333;28;20461;-71
2022/07/29 04:39:14;;;;;;;3.93;2.40;;;18.20;98.00;;;;;;5031677;28;20451;-71
2022/07/29 04:41:41;;;;;;;2.90;2.50;;;18.30;98.00;;;;;;5031047;28;20621;-71
2022/07/29 04:44:12;;;;;;;3.30;2.47;;;18.30;98.00;;;;;;5030292;28;20884;-71
2022/07/29 04:46:40;;;;;;;4.07;2.90;;;18.20;98.00;;;;;;5031292;28;20936;-71
2022/07/29 04:49:07;;;;;;;3.30;2.33;;;18.00;98.00;;;;;;5031392;28;20450;-71
2022/07/29 04:51:35;;;;;;;3.33;2.80;;;18.00;98.00;;;;;;5031184;28;20954;-71
2022/07/29 04:54:02;;;;;;;3.67;2.40;;;18.10;98.00;;;;;;5031250;28;20462;-71
2022/07/29 04:56:29;;;;;;;3.20;2.40;;;18.20;98.00;;;;;;5031327;28;20465;-71
2022/07/29 04:58:56;;;;;;;5.13;3.00;;;18.20;98.00;;;;;;5031001;28;20459;-71
2022/07/29 05:01:27;;;;;;;4.00;2.80;;;18.20;98.00;;;;;;5030972;28;20486;-71
2022/07/29 05:03:54;;;;;;;5.30;3.20;;;18.40;98.00;;;;;;5031332;28;20451;-71
2022/07/29 05:06:21;;;;;;;3.63;2.70;;;18.60;98.00;;;;;;5031124;28;20466;-71
2022/07/29 05:08:49;;;;;;;3.87;2.90;;;18.50;98.00;;;;;;5031121;28;20454;-71
2022/07/29 05:11:16;;;;;;;5.00;2.70;;;18.50;98.00;;;;;;5031124;28;20798;-71
2022/07/29 05:13:43;;;;;;;3.70;2.60;;;18.70;98.00;;;;;;5031000;28;20450;-71
2022/07/29 05:16:10;;;;;;;3.10;2.37;;;18.60;98.00;;;;;;5035049;28;20454;-71
2022/07/29 05:18:39;;;;;;;4.00;2.50;;;18.70;98.00;;;;;;5033729;28;20528;-71
2022/07/29 05:21:06;;;;;;;5.57;2.80;;;18.80;98.00;;;;;;5033913;28;20490;-71
2022/07/29 05:23:33;;;;;;;5.83;2.93;;;18.70;98.00;;;;;;5035079;28;20454;-71
2022/07/29 05:26:00;;;;;;;3.70;2.50;;;18.70;98.00;;;;;;5035171;28;20893;-71
2022/07/29 05:28:27;;;;;;;3.43;2.30;;;18.60;98.00;;;;;;5034026;28;20530;-71
2022/07/29 05:30:54;;;;;;;4.97;2.70;;;18.50;98.00;;;;;;5034813;28;20465;-71
2022/07/29 05:33:21;;;;;;;3.60;2.40;;;18.70;98.00;;;;;;5034905;28;20944;-71
2022/07/29 05:35:50;;;;;;;4.00;3.00;;;18.80;98.00;;;;;;5034730;28;20462;-71
2022/07/29 05:38:17;;;;;;;4.60;2.70;;;18.90;98.00;;;;;;5034886;28;20463;-71
2022/07/29 05:40:44;;;;;;;2.60;2.27;;;19.10;98.00;;;;;;5034481;28;20450;-68
2022/07/29 05:43:11;;;;;;;3.03;2.30;;;19.10;98.00;;;;;;5033387;28;20469;-68
2022/07/29 05:45:40;;;;;;;4.23;2.67;;;19.20;98.00;;;;;;5034453;28;20450;-68
2022/07/29 05:48:07;;;;;;;4.00;2.53;;;19.30;98.00;;;;;;5034515;28;20450;-68
2022/07/29 05:50:34;;;;;;;3.70;2.50;;;19.50;98.00;;;;;;5034343;28;20454;-68
2022/07/29 05:53:02;;;;;;;3.13;2.20;;;19.50;98.00;;;;;;5034518;28;20455;-68
2022/07/29 05:55:30;;;;;;;4.00;2.63;;;19.60;98.00;;;;;;5034732;28;20466;-68
2022/07/29 05:57:57;;;;;;;4.17;2.80;;;19.70;98.00;;;;;;5033888;28;20550;-65
2022/07/29 06:00:24;;;;;;;7.23;3.93;;;19.80;98.00;;;;;;5035051;28;20467;-66
2022/07/29 06:02:51;;;;;;;2.70;1.80;;;19.80;98.00;;;;;;5034726;28;20494;-65
2022/07/29 06:05:19;;;;;;;3.70;2.40;;;19.90;98.00;;;;;;5035132;28;20451;-65
2022/07/29 06:07:46;;;;;;;3.03;2.33;;;20.10;98.00;;;;;;5035019;28;20485;-66
2022/07/29 06:10:15;;;;;;;4.60;2.33;;;20.50;98.00;;;;;;5034985;28;20501;-66
2022/07/29 06:12:42;;;;;;;8.50;3.73;;;21.00;98.00;;;;;;5034899;28;20458;-66
2022/07/29 06:15:10;;;;;;;3.40;2.40;;;20.90;98.00;;;;;;5035209;28;20465;-65
2022/07/29 06:17:37;;;;;;;4.20;2.97;;;20.50;98.00;;;;;;5034686;28;20557;-66
2022/07/29 06:20:06;;;;;;;4.13;2.47;;;20.60;98.00;;;;;;5034988;28;20827;-66
2022/07/29 06:22:33;;;;;;;4.80;2.80;;;20.90;98.00;;;;;;5033148;28;20486;-66
2022/07/29 06:25:02;;;;;;;8.13;3.50;;;21.20;98.00;;;;;;5034771;28;20453;-65
2022/07/29 06:27:31;;;;;;;3.53;2.80;;;21.20;98.00;;;;;;5033864;28;20451;-65
2022/07/29 06:29:58;;;;;;;5.83;3.70;;;21.30;98.00;;;;;;5034476;28;20459;-65
2022/07/29 06:32:26;;;;;;;7.57;3.10;;;21.50;98.00;;;;;;5034901;28;20451;-65
2022/07/29 06:34:53;;;;;;;4.77;3.10;;;21.50;98.00;;;;;;5034401;28;20820;-66
2022/07/29 06:37:21;;;;;;;7.60;2.90;;;21.50;98.00;;;;;;5034284;28;20450;-66
2022/07/29 06:40:59;;;;;;;3.63;2.50;;;21.60;98.00;;;;;;5032990;28;20482;-66
2022/07/29 06:42:38;;;;;;;5.43;3.20;;;21.80;98.00;;;;;;5034060;28;20544;-66
2022/07/29 06:45:05;;;;;;;3.23;2.30;;;22.10;98.00;;;;;;5033863;28;20490;-65
2022/07/29 06:47:33;;;;;;;7.13;3.60;;;22.40;98.00;;;;;;5034159;28;20451;-65
2022/07/29 06:50:00;;;;;;;4.83;3.33;;;22.60;98.00;;;;;;5033462;28;20473;-65
2022/07/29 06:52:27;;;;;;;5.17;3.13;;;22.80;98.00;;;;;;5033474;28;20755;-65
2022/07/29 06:54:54;;;;;;;4.53;3.00;;;22.90;98.00;;;;;;5033175;28;20451;-64
2022/07/29 06:57:21;;;;;;;6.27;3.17;;;22.90;98.00;;;;;;5033377;28;20886;-66
2022/07/29 06:59:51;;;;;;;3.63;2.50;;;22.60;98.00;;;;;;5033123;28;20454;-67
2022/07/29 07:02:18;;;;;;;5.37;3.00;;;22.50;98.00;;;;;;5033028;28;20879;-67
2022/07/29 07:04:45;;;;;;;4.23;3.20;;;22.50;98.00;;;;;;5011241;28;20471;-66
2022/07/29 07:07:12;;;;;;;4.50;2.77;;;22.40;98.00;;;;;;5010606;28;20472;-67
2022/07/29 07:09:40;;;;;;;5.20;3.20;;;22.30;98.00;;;;;;5009118;28;20459;-67
2022/07/29 07:12:10;;;;;;;4.13;2.50;;;22.20;98.00;;;;;;5010557;28;20462;-64
2022/07/29 07:14:37;;;;;;;6.23;3.60;;;22.30;98.00;;;;;;5010418;28;20472;-63
2022/07/29 07:17:06;;;;;;;5.87;2.73;;;22.50;98.00;;;;;;5010053;28;20466;-63
2022/07/29 07:19:34;;;;;;;4.70;2.80;;;22.60;98.00;;;;;;5008933;28;20475;-63
2022/07/29 07:22:01;;;;;;;4.73;2.93;;;22.90;98.00;;;;;;5010314;28;20487;-63
2022/07/29 07:24:28;;;;;;;5.23;2.50;;;23.20;98.00;;;;;;5010359;28;20455;-63
2022/07/29 07:26:55;;;;;;;3.83;2.70;;;23.60;98.00;;;;;;5010559;28;20467;-63
2022/07/29 07:29:22;;;;;;;5.77;3.13;;;23.80;98.00;;;;;;5010300;28;21095;-63
2022/07/29 07:31:49;;;;;;;4.33;2.80;;;24.00;98.00;;;;;;5010618;28;20459;-63
2022/07/29 07:34:18;;;;;;;4.23;2.80;;;24.10;98.00;;;;;;5016022;28;20456;-63
2022/07/29 07:36:45;;;;;;;5.20;3.20;;;24.20;98.00;;;;;;5009816;28;20475;-63
2022/07/29 07:39:12;;;;;;;3.97;2.60;;;24.20;98.00;;;;;;5010017;28;20466;-63
2022/07/29 07:41:40;;;;;;;4.77;2.83;;;23.90;98.00;;;;;;5009790;28;20529;-63
2022/07/29 07:44:07;;;;;;;9.77;2.57;;;23.90;98.00;;;;;;5009803;28;20462;-64
2022/07/29 07:46:34;;;;;;;5.03;2.87;;;23.90;98.00;;;;;;5009693;28;20475;-63
2022/07/29 07:49:01;;;;;;;3.60;2.80;;;24.10;98.00;;;;;;5010224;28;20795;-64
2022/07/29 07:51:30;;;;;;;5.37;2.93;;;24.30;98.00;;;;;;5007402;28;20971;-64
2022/07/29 07:53:57;;;;;;;4.20;2.70;;;24.50;98.00;;;;;;5009721;28;20452;-64
2022/07/29 07:56:24;;;;;;;4.43;2.60;;;24.30;98.00;;;;;;5009742;28;20456;-64
2022/07/29 07:58:51;;;;;;;3.60;2.63;;;24.20;98.00;;;;;;5009540;28;20468;-63
2022/07/29 08:01:20;;;;;;;5.13;3.00;;;24.40;98.00;;;;;;5009905;28;20455;-63
2022/07/29 08:03:48;;;;;;;4.17;2.90;;;24.40;98.00;;;;;;5008145;28;20503;-63
2022/07/29 08:06:15;;;;;;;3.93;2.80;;;24.50;98.00;;;;;;5008244;28;20921;-64
2022/07/29 08:08:44;;;;;;;3.60;2.70;;;24.40;98.00;;;;;;5009445;28;20501;-64
2022/07/29 08:11:11;;;;;;;8.77;3.07;;;24.40;98.00;;;;;;5009465;28;20459;-64
2022/07/29 08:13:39;;;;;;;4.40;3.07;;;24.60;98.00;;;;;;5009515;28;20467;-64
2022/07/29 08:16:14;;;;;;;3.60;2.53;;;24.40;98.00;;;;;;5009345;28;20487;-64
2022/07/29 08:18:43;;;;;;;3.03;2.70;;;24.50;98.00;;;;;;5005412;28;20459;-64
2022/07/29 08:21:12;;;;;;;3.93;2.53;;;24.70;98.00;;;;;;5009303;28;20464;-64
2022/07/29 08:23:39;;;;;;;4.30;3.10;;;24.90;98.00;;;;;;5009340;28;20496;-63
2022/07/29 08:26:10;;;;;;;4.50;2.90;;;25.00;98.00;;;;;;5009225;28;20838;-64
2022/07/29 08:28:38;;;;;;;3.23;2.50;;;25.10;98.00;;;;;;5009279;28;20513;-64
2022/07/29 08:31:05;;;;;;;4.93;2.47;;;25.30;98.00;;;;;;5009711;28;20455;-67
2022/07/29 08:33:32;;;;;;;3.30;2.50;;;25.40;98.00;;;;;;5012062;28;20849;-67
2022/07/29 08:36:01;;;;;;;5.50;2.63;;;25.50;98.00;;;;;;5011682;28;20451;-67
2022/07/29 08:38:28;;;;;;;4.40;3.10;;;25.50;98.00;;;;;;5011936;28;20455;-67
2022/07/29 08:40:55;;;;;;;4.37;2.87;;;25.50;98.00;;;;;;5011487;28;20942;-67
2022/07/29 08:43:25;;;;;;;3.23;2.37;;;25.40;98.00;;;;;;5011559;28;20583;-67
2022/07/29 08:45:53;;;;;;;3.73;2.70;;;25.40;98.00;;;;;;5011233;28;20502;-67
2022/07/29 08:48:22;;;;;;;3.97;2.60;;;25.20;98.00;;;;;;5011532;28;20475;-67
2022/07/29 08:50:50;;;;;;;4.33;3.20;;;25.30;98.00;;;;;;5011037;28;20467;-67
2022/07/29 08:53:19;;;;;;;7.10;3.03;;;25.30;98.00;;;;;;5011566;28;20459;-66
2022/07/29 08:55:49;;;;;;;3.70;2.70;;;25.10;98.00;;;;;;5011485;28;20451;-67
2022/07/29 08:58:17;;;;;;;4.20;2.80;;;25.20;98.00;;;;;;5011513;28;20459;-67
2022/07/29 09:00:51;;;;;;;4.67;2.90;;;25.30;98.00;;;;;;5011094;28;20816;-67
2022/07/29 09:03:21;;;;;;;6.10;3.10;;;25.30;98.00;;;;;;5011374;28;20493;-67
2022/07/29 09:05:49;;;;;;;4.57;2.80;;;25.40;98.00;;;;;;5010961;28;20470;-67
2022/07/29 09:08:18;;;;;;;4.90;3.27;;;25.50;98.00;;;;;;5011483;28;20466;-67
2022/07/29 09:10:45;;;;;;;3.23;2.57;;;25.70;98.00;;;;;;5010405;28;20980;-67
2022/07/29 09:13:13;;;;;;;5.40;2.97;;;25.70;98.00;;;;;;5011203;28;20455;-67
2022/07/29 09:15:40;;;;;;;5.10;3.10;;;25.80;98.00;;;;;;5011482;28;20448;-67
2022/07/29 09:18:09;;;;;;;5.70;3.40;;;25.90;98.00;;;;;;5011295;28;20479;-67
2022/07/29 09:23:20;;;;;;;4.03;2.70;;;26.00;98.00;;;;;;5011333;28;20552;-67
2022/07/29 09:25:50;;;;;;;3.97;2.70;;;26.20;98.00;;;;;;5011328;28;20466;-63
2022/07/29 09:28:18;;;;;;;6.63;3.77;;;26.40;98.00;;;;;;5011456;28;20452;-62
2022/07/29 09:30:52;;;;;;;5.40;3.23;;;26.40;98.00;;;;;;5011433;28;20460;-62
2022/07/29 09:33:22;;;;;;;4.83;3.13;;;26.50;98.00;;;;;;5011354;28;20522;-64
2022/07/29 09:36:00;;;;;;;5.00;3.23;;;26.70;98.00;;;;;;5011137;28;20521;-64
2022/07/29 09:38:27;;;;;;;4.40;2.80;;;26.80;98.00;;;;;;5011196;28;20860;-63
2022/07/29 09:40:58;;;;;;;4.43;3.33;;;27.00;97.60;;;;;;5011114;28;20950;-63
2022/07/29 09:43:26;;;;;;;4.70;3.00;;;27.10;96.60;;;;;;5011058;28;20884;-64
2022/07/29 09:45:53;;;;;;;4.20;2.87;;;27.00;95.70;;;;;;5010968;28;20837;-64
2022/07/29 09:48:23;;;;;;;3.73;2.73;;;27.10;95.20;;;;;;5011023;28;20463;-64
2022/07/29 09:50:50;;;;;;;5.30;2.97;;;27.20;94.40;;;;;;5010776;28;20464;-64
2022/07/29 09:53:32;;;;;;;3.73;3.00;;;27.40;93.70;;;;;;5011047;28;20452;-65
2022/07/29 09:55:59;;;;;;;5.00;3.13;;;27.40;92.60;;;;;;5010964;28;20459;-64
2022/07/29 09:58:26;;;;;;;5.17;3.13;;;27.40;94.30;;;;;;5011033;28;20481;-64
2022/07/29 10:00:55;;;;;;;6.03;4.00;;;27.60;95.30;;;;;;5012469;28;20462;-72
2022/07/29 10:03:25;;;;;;;3.70;2.90;;;27.70;94.20;;;;;;5014538;28;20493;-71
2022/07/29 10:06:07;;;;;;;4.27;3.07;;;27.70;95.20;;;;;;5014577;28;20735;-72
2022/07/29 10:08:35;;;;;;;4.93;3.33;;;27.60;92.70;;;;;;5014757;28;20463;-72
2022/07/29 10:11:15;;;;;;;5.67;3.77;;;27.60;92.80;;;;;;5019741;28;20469;-72
2022/07/29 10:13:44;;;;;;;5.80;3.70;;;27.90;93.20;;;;;;5027917;28;20467;-72
2022/07/29 10:16:12;;;;;;;5.47;3.43;;;28.10;91.60;;;;;;5014687;28;20459;-73
2022/07/29 10:18:42;;;;;;;6.40;3.10;;;28.10;92.10;;;;;;5014634;28;20463;-72
2022/07/29 10:21:15;;;;;;;4.70;3.37;;;28.10;91.10;;;;;;5015351;28;20468;-73
2022/07/29 10:24:07;;;;;;;6.00;4.10;;;28.00;93.60;;;;;;4997613;28;20498;-72
2022/07/29 10:26:36;;;;;;;5.87;3.43;;;28.10;92.20;;;;;;5014822;28;20463;-73
2022/07/29 10:29:04;;;;;;;5.10;3.43;;;28.40;93.00;;;;;;5014344;28;20463;-73
2022/07/29 10:31:42;;;;;;;7.77;3.97;;;28.50;90.50;;;;;;5014279;28;20462;-72
2022/07/29 10:34:20;;;;;;;4.63;3.53;;;28.50;90.50;;;;;;5014044;28;20826;-72
2022/07/29 10:36:57;;;;;;;7.50;3.60;;;28.40;90.40;;;;;;5014123;28;20506;-72
2022/07/29 10:39:40;;;;;;;5.00;3.57;;;28.50;89.20;;;;;;5014978;28;20583;-71
2022/07/29 10:42:17;;;;;;;6.10;3.67;;;28.70;90.30;;;;;;5015058;28;20482;-70
2022/07/29 10:44:45;;;;;;;6.27;3.60;;;28.90;90.60;;;;;;5013826;28;21103;-64
2022/07/29 10:47:22;;;;;;;6.43;3.70;;;29.00;88.10;;;;;;5014244;28;20451;-67
2022/07/29 10:50:02;;;;;;;4.13;2.97;;;28.80;89.00;;;;;;5013516;28;21072;-69
2022/07/29 10:52:56;;;;;;;3.73;2.97;;;28.70;89.80;;;;;;5013916;28;20470;-66
2022/07/29 10:55:34;;;;;;;5.13;3.47;;;28.60;89.30;;;;;;5013799;28;20455;-65
2022/07/29 10:58:13;;;;;;;4.87;3.40;;;28.60;90.00;;;;;;5014547;28;20455;-65
2022/07/29 11:00:40;;;;;;;9.47;4.00;;;28.50;89.20;;;;;;5014700;28;20478;-66
2022/07/29 11:03:08;;;;;;;5.60;3.50;;;28.60;90.80;;;;;;5014363;28;20498;-66
2022/07/29 11:05:55;;;;;;;5.30;3.60;;;28.70;90.50;;;;;;5014396;28;20455;-66
2022/07/29 11:08:26;;;;;;;7.13;4.37;;;28.80;89.60;;;;;;5013978;28;20452;-64
2022/07/29 11:11:09;;;;;;;5.60;3.67;;;29.00;89.40;;;;;;5013484;28;20447;-66
2022/07/29 11:13:54;;;;;;;5.43;3.60;;;29.00;89.00;;;;;;5012415;28;20475;-65
2022/07/29 11:16:23;;;;;;;5.60;3.50;;;28.80;88.40;;;;;;5013348;28;20451;-65
2022/07/29 11:19:24;;;;;;;5.40;3.40;;;28.70;89.10;;;;;;5013158;28;20484;-65
2022/07/29 11:21:52;;;;;;;5.40;3.60;;;28.40;91.10;;;;;;5012712;28;20916;-65
2022/07/29 11:24:23;;;;;;;9.10;3.80;;;28.00;91.00;;;;;;5013246;28;20923;-65
2022/07/29 11:27:16;;;;;;;11.43;4.10;;;27.90;91.60;;;;;;5013166;28;20452;-65
2022/07/29 11:29:54;;;;;;;5.40;3.70;;;27.80;92.90;;;;;;5011995;28;20456;-65
2022/07/29 11:32:23;;;;;;;4.17;3.00;;;27.60;94.00;;;;;;5013216;28;20455;-66
2022/07/29 11:35:09;;;;;;;5.80;3.43;;;27.30;93.40;;;;;;5013026;28;20463;-69
2022/07/29 11:37:39;;;;;;;5.40;3.23;;;27.20;93.30;;;;;;5012769;28;20490;-66
2022/07/29 11:40:19;;;;;;;5.00;3.53;;;27.00;94.00;;;;;;5013006;28;20488;-70
2022/07/29 11:42:52;;;;;;;6.33;4.13;;;26.90;94.20;;;;;;5012742;28;20549;-66
2022/07/29 11:45:28;;;;;;;7.00;3.80;;;26.70;95.10;;;;;;5011693;28;20467;-72
2022/07/29 11:47:58;;;;;;;6.33;3.43;;;26.60;95.00;;;;;;5012708;28;20458;-70
2022/07/29 11:50:34;;;;;;;8.27;4.03;;;26.60;94.10;;;;;;5012281;28;20460;-70
2022/07/29 11:53:11;;;;;;;4.47;3.20;;;26.50;95.20;;;;;;5012983;28;20462;-71
2022/07/29 11:55:40;;;;;;;7.23;4.00;;;26.40;96.30;;;;;;5009684;28;20469;-71
2022/07/29 11:58:07;;;;;;;6.13;4.23;;;26.20;98.00;;;;;;5011487;28;20463;-71
2022/07/29 12:00:37;;;;;;;5.10;3.30;;;25.70;97.80;;;;;;5012534;28;20463;-71
2022/07/29 12:03:06;;;;;;;5.93;3.40;;;25.40;98.00;;;;;;5011137;28;20554;-70
2022/07/29 12:05:40;;;;;;;6.63;4.00;;;25.20;98.00;;;;;;5012297;28;20460;-71
2022/07/29 12:08:12;;;;;;;5.00;3.40;;;25.00;98.00;;;;;;5012617;28;20830;-71
2022/07/29 12:10:40;;;;;;;4.63;3.47;;;24.60;98.00;;;;;;5012053;28;20467;-71
2022/07/29 12:13:07;;;;;;;5.83;3.93;;;24.50;98.00;;;;;;5012305;28;20466;-71
2022/07/29 12:15:35;;;;;;;5.67;3.57;;;24.40;98.00;;;;;;5012202;28;20459;-71
2022/07/29 12:18:11;;;;;;;5.60;3.67;;;24.40;98.00;;;;;;5012315;28;20475;-71
2022/07/29 12:20:39;;;;;;;5.03;3.50;;;24.20;98.00;;;;;;5010777;28;20459;-71
2022/07/29 12:23:07;;;;;;;7.27;3.97;;;24.10;98.00;;;;;;5011332;28;20492;-71
2022/07/29 12:25:37;;;;;;;5.97;3.83;;;24.00;98.00;;;;;;5011266;28;20467;-69
2022/07/29 12:28:06;;;;;;;5.93;3.60;;;24.10;98.00;;;;;;5012188;28;20517;-68
2022/07/29 12:30:41;;;;;;;4.80;3.50;;;24.10;98.00;;;;;;5011572;28;20475;-68
2022/07/29 12:33:14;;;;;;;5.40;3.60;;;24.10;98.00;;;;;;5012383;28;20455;-69
2022/07/29 12:35:42;;;;;;;5.27;3.40;;;24.20;98.00;;;;;;5011826;28;20977;-68
2022/07/29 12:38:11;;;;;;;4.37;3.10;;;24.20;98.00;;;;;;5013024;28;20534;-69
2022/07/29 12:40:41;;;;;;;5.57;3.47;;;24.10;98.00;;;;;;5016754;28;20455;-71
2022/07/29 12:43:13;;;;;;;4.90;3.40;;;24.00;98.00;;;;;;5012376;28;20467;-69
2022/07/29 12:45:42;;;;;;;6.27;3.57;;;24.00;98.00;;;;;;5013782;28;20467;-67
2022/07/29 12:48:15;;;;;;;5.87;3.90;;;23.80;98.00;;;;;;5012088;28;20471;-69
2022/07/29 12:50:57;;;;;;;4.50;3.27;;;23.70;98.00;;;;;;5011789;28;20470;-69
2022/07/29 12:53:24;;;;;;;5.57;3.17;;;23.80;98.00;;;;;;5012166;28;20827;-69
2022/07/29 12:55:56;;;;;;;4.20;3.30;;;23.90;98.00;;;;;;5011934;28;20463;-69
2022/07/29 12:58:32;;;;;;;5.30;3.10;;;23.70;98.00;;;;;;5012061;28;20907;-68
2022/07/29 13:01:03;;;;;;;5.40;3.30;;;23.60;98.00;;;;;;5012304;28;20537;-70
2022/07/29 13:03:30;;;;;;;5.30;2.70;;;23.50;98.00;;;;;;5012264;28;20857;-69
2022/07/29 13:05:57;;;;;;;4.87;2.63;;;23.50;98.00;;;;;;5012152;28;20460;-69